createdAt,value
2018-11-28T00:00:31.382Z,-6.00
2018-11-28T00:03:01.917Z,-6.00
2018-11-28T00:05:30.504Z,-6.10
2018-11-28T00:07:59.018Z,-6.10
2018-11-28T00:10:27.532Z,-6.00
2018-11-28T00:12:56.043Z,-6.00
2018-11-28T00:15:24.598Z,-6.10
2018-11-28T00:17:53.102Z,-6.10
2018-11-28T00:20:22.708Z,-6.00
2018-11-28T00:22:51.235Z,-6.00
2018-11-28T00:25:20.266Z,-5.90
2018-11-28T00:27:48.772Z,-5.90
2018-11-28T00:30:20.854Z,-6.00
2018-11-28T00:32:49.418Z,-6.00
2018-11-28T00:35:19.382Z,-6.10
2018-11-28T00:37:48.292Z,-6.10
2018-11-28T00:40:19.088Z,-6.20
2018-11-28T00:42:47.802Z,-6.20
2018-11-28T00:45:23.455Z,-6.20
2018-11-28T00:47:52.018Z,-6.20
2018-11-28T00:50:22.062Z,-6.20
2018-11-28T00:52:50.676Z,-6.30
2018-11-28T00:55:19.505Z,-6.20
2018-11-28T00:57:48.022Z,-6.30
2018-11-28T01:00:18.213Z,-6.40
2018-11-28T01:02:47.101Z,-6.30
2018-11-28T01:05:16.198Z,-6.30
2018-11-28T01:07:45.315Z,-6.30
2018-11-28T01:10:15.722Z,-6.40
2018-11-28T01:12:44.306Z,-6.40
2018-11-28T01:15:14.271Z,-6.20
2018-11-28T01:17:42.888Z,-6.30
2018-11-28T01:20:12.859Z,-6.40
2018-11-28T01:22:41.485Z,-6.30
2018-11-28T01:25:12.471Z,-6.30
2018-11-28T01:27:41.018Z,-6.30
2018-11-28T01:30:14.761Z,-6.40
2018-11-28T01:32:44.055Z,-6.30
2018-11-28T01:35:15.014Z,-6.30
2018-11-28T01:37:43.781Z,-6.40
2018-11-28T01:40:15.470Z,-6.30
2018-11-28T01:42:44.018Z,-6.30
2018-11-28T01:45:15.523Z,-6.30
2018-11-28T01:47:44.998Z,-6.40
2018-11-28T01:50:15.123Z,-6.40
2018-11-28T01:52:43.674Z,-6.40
2018-11-28T01:55:15.129Z,-6.40
2018-11-28T01:57:43.926Z,-6.50
2018-11-28T02:00:18.859Z,-6.50
2018-11-28T02:02:49.238Z,-6.50
2018-11-28T02:05:17.789Z,-6.40
2018-11-28T02:07:46.342Z,-6.50
2018-11-28T02:10:16.334Z,-6.50
2018-11-28T02:12:44.878Z,-6.40
2018-11-28T02:15:19.989Z,-6.50
2018-11-28T02:17:48.982Z,-6.60
2018-11-28T02:20:18.483Z,-6.60
2018-11-28T02:22:47.143Z,-6.50
2018-11-28T02:25:16.987Z,-6.50
2018-11-28T02:27:46.687Z,-6.60
2018-11-28T02:30:17.980Z,-6.50
2018-11-28T02:32:47.661Z,-6.50
2018-11-28T02:35:16.727Z,-6.60
2018-11-28T02:37:45.229Z,-6.60
2018-11-28T02:40:16.585Z,-6.60
2018-11-28T02:42:45.779Z,-6.50
2018-11-28T02:45:15.886Z,-6.50
2018-11-28T02:47:44.694Z,-6.50
2018-11-28T02:50:13.291Z,-6.50
2018-11-28T02:52:41.802Z,-6.50
2018-11-28T02:55:12.062Z,-6.50
2018-11-28T02:57:41.486Z,-6.40
2018-11-28T03:00:15.238Z,-6.50
2018-11-28T03:02:43.786Z,-6.50
2018-11-28T03:05:13.401Z,-6.50
2018-11-28T03:07:41.991Z,-6.50
2018-11-28T03:10:12.933Z,-6.60
2018-11-28T03:12:41.461Z,-6.60
2018-11-28T03:15:16.685Z,-6.70
2018-11-28T03:17:45.186Z,-6.70
2018-11-28T03:20:13.811Z,-6.70
2018-11-28T03:22:42.383Z,-6.70
2018-11-28T03:25:11.896Z,-6.60
2018-11-28T03:27:40.418Z,-6.60
2018-11-28T03:30:16.729Z,-6.50
2018-11-28T03:32:45.251Z,-6.50
2018-11-28T03:35:14.889Z,-6.50
2018-11-28T03:37:44.288Z,-6.50
2018-11-28T03:40:13.468Z,-6.60
2018-11-28T03:42:42.491Z,-6.70
2018-11-28T03:45:12.932Z,-6.70
2018-11-28T03:47:42.766Z,-6.70
2018-11-28T03:50:12.802Z,-6.70
2018-11-28T03:52:41.422Z,-6.70
2018-11-28T03:55:12.067Z,-6.70
2018-11-28T03:57:40.698Z,-6.70
2018-11-28T04:00:19.264Z,-6.70
2018-11-28T04:02:48.793Z,-6.70
2018-11-28T04:05:17.455Z,-6.80
2018-11-28T04:07:45.990Z,-6.80
2018-11-28T04:10:15.635Z,-6.80
2018-11-28T04:12:45.194Z,-6.80
2018-11-28T04:15:18.803Z,-6.80
2018-11-28T04:17:47.450Z,-6.80
2018-11-28T04:20:18.274Z,-6.80
2018-11-28T04:22:46.791Z,-6.90
2018-11-28T04:25:16.888Z,-6.90
2018-11-28T04:27:45.411Z,-6.90
2018-11-28T04:30:18.243Z,-6.90
2018-11-28T04:32:48.046Z,-6.90
2018-11-28T04:35:16.775Z,-6.80
2018-11-28T04:37:46.334Z,-6.90
2018-11-28T04:40:16.378Z,-6.90
2018-11-28T04:42:45.781Z,-7.00
2018-11-28T04:45:18.572Z,-7.00
2018-11-28T04:47:47.150Z,-7.00
2018-11-28T04:50:15.704Z,-7.00
2018-11-28T04:52:44.221Z,-6.90
2018-11-28T04:55:15.035Z,-6.90
2018-11-28T04:57:44.026Z,-6.90
2018-11-28T05:00:30.906Z,-6.90
2018-11-28T05:02:59.509Z,-6.90
2018-11-28T05:05:28.141Z,-6.90
2018-11-28T05:07:56.648Z,-6.90
2018-11-28T05:10:28.538Z,-6.90
2018-11-28T05:12:57.975Z,-6.90
2018-11-28T05:15:27.656Z,-6.90
2018-11-28T05:17:56.162Z,-6.90
2018-11-28T05:20:28.458Z,-6.90
2018-11-28T05:22:57.011Z,-6.80
2018-11-28T05:25:28.733Z,-6.90
2018-11-28T05:27:59.417Z,-6.90
2018-11-28T05:30:29.423Z,-6.90
2018-11-28T05:32:57.970Z,-6.90
2018-11-28T05:35:29.278Z,-6.90
2018-11-28T05:37:58.137Z,-6.90
2018-11-28T05:40:28.635Z,-6.80
2018-11-28T05:42:57.537Z,-6.80
2018-11-28T05:45:26.546Z,-6.70
2018-11-28T05:47:55.098Z,-6.60
2018-11-28T05:50:23.642Z,-6.50
2018-11-28T05:52:52.161Z,-6.40
2018-11-28T05:55:22.093Z,-6.30
2018-11-28T05:57:50.656Z,-6.30
2018-11-28T06:00:25.470Z,-6.10
2018-11-28T06:02:54.015Z,-6.00
2018-11-28T06:05:22.523Z,-6.00
2018-11-28T06:07:51.037Z,-6.00
2018-11-28T06:10:19.562Z,-6.00
2018-11-28T06:12:48.073Z,-5.90
2018-11-28T06:15:16.590Z,-5.70
2018-11-28T06:17:45.164Z,-5.70
2018-11-28T06:20:15.311Z,-5.60
2018-11-28T06:22:44.801Z,-5.50
2018-11-28T06:25:16.837Z,-5.50
2018-11-28T06:27:44.518Z,-5.40
2018-11-28T06:30:14.958Z,-5.30
2018-11-28T06:32:43.545Z,-5.30
2018-11-28T06:35:13.150Z,-5.20
2018-11-28T06:37:42.676Z,-5.10
2018-11-28T06:40:14.262Z,-5.00
2018-11-28T06:42:43.192Z,-5.00
2018-11-28T06:45:14.357Z,-4.90
2018-11-28T06:47:42.900Z,-4.80
2018-11-28T06:50:15.100Z,-4.80
2018-11-28T06:52:45.440Z,-4.80
2018-11-28T06:55:15.730Z,-4.70
2018-11-28T06:57:44.351Z,-4.70
2018-11-28T07:00:16.803Z,-4.60
2018-11-28T07:02:45.930Z,-4.60
2018-11-28T07:05:14.561Z,-4.50
2018-11-28T07:07:43.062Z,-4.50
2018-11-28T07:10:16.097Z,-4.60
2018-11-28T07:12:44.662Z,-4.50
2018-11-28T07:15:15.085Z,-4.30
2018-11-28T07:17:44.585Z,-4.20
2018-11-28T07:20:14.569Z,-4.10
2018-11-28T07:22:43.123Z,-4.10
2018-11-28T07:25:14.030Z,-4.00
2018-11-28T07:27:45.348Z,-3.90
2018-11-28T07:30:15.854Z,-3.90
2018-11-28T07:32:45.297Z,-3.90
2018-11-28T07:35:14.787Z,-3.90
2018-11-28T07:37:43.345Z,-3.90
2018-11-28T07:40:14.331Z,-3.90
2018-11-28T07:42:45.659Z,-3.90
2018-11-28T07:45:14.170Z,-3.90
2018-11-28T07:47:42.679Z,-3.80
2018-11-28T07:50:11.715Z,-3.80
2018-11-28T07:52:40.219Z,-3.80
2018-11-28T07:55:10.562Z,-3.80
2018-11-28T07:57:39.998Z,-3.80
2018-11-28T08:00:11.924Z,-3.80
2018-11-28T08:02:41.406Z,-3.70
2018-11-28T08:05:11.047Z,-3.80
2018-11-28T08:07:39.991Z,-3.80
2018-11-28T08:10:18.469Z,-3.70
2018-11-28T08:12:47.207Z,-3.60
2018-11-28T08:15:15.736Z,-3.60
2018-11-28T08:17:44.436Z,-3.60
2018-11-28T08:20:13.010Z,-3.50
2018-11-28T08:22:41.550Z,-3.40
2018-11-28T08:25:12.888Z,-3.30
2018-11-28T08:27:41.421Z,-3.30
2018-11-28T08:30:13.119Z,-3.20
2018-11-28T08:32:41.650Z,-3.10
2018-11-28T08:35:11.150Z,-3.10
2018-11-28T08:37:39.686Z,-3.10
2018-11-28T08:40:11.347Z,-3.10
2018-11-28T08:42:39.902Z,-3.10
2018-11-28T08:45:13.347Z,-3.10
2018-11-28T08:47:42.043Z,-3.10
2018-11-28T08:50:13.434Z,-3.00
2018-11-28T08:52:42.030Z,-3.10
2018-11-28T08:55:12.462Z,-3.00
2018-11-28T08:57:41.034Z,-3.00
2018-11-28T09:00:23.608Z,-3.00
2018-11-28T09:02:54.109Z,-3.00
2018-11-28T09:05:22.664Z,-2.90
2018-11-28T09:07:51.223Z,-3.00
2018-11-28T09:10:20.981Z,-3.00
2018-11-28T09:12:50.164Z,-2.90
2018-11-28T09:15:24.062Z,-3.00
2018-11-28T09:17:52.588Z,-3.00
2018-11-28T09:20:21.126Z,-3.00
2018-11-28T09:22:49.638Z,-3.00
2018-11-28T09:25:19.072Z,-3.00
2018-11-28T09:27:55.270Z,-3.00
2018-11-28T09:30:23.786Z,-3.00
2018-11-28T09:32:52.638Z,-3.00
2018-11-28T09:35:21.320Z,-3.00
2018-11-28T09:37:49.818Z,-3.00
2018-11-28T09:40:20.462Z,-2.90
2018-11-28T09:42:49.717Z,-2.90
2018-11-28T09:45:19.354Z,-2.80
2018-11-28T09:47:47.908Z,-2.70
2018-11-28T09:50:18.062Z,-2.70
2018-11-28T09:52:46.618Z,-2.60
2018-11-28T09:55:30.886Z,-2.60
2018-11-28T09:57:59.422Z,-2.50
2018-11-28T10:00:29.187Z,-2.50
2018-11-28T10:02:59.407Z,-2.40
2018-11-28T10:05:32.166Z,-2.30
2018-11-28T10:08:01.719Z,-2.20
2018-11-28T10:10:30.261Z,-2.20
2018-11-28T10:12:59.351Z,-2.20
2018-11-28T10:15:28.994Z,-2.20
2018-11-28T10:17:57.609Z,-2.20
2018-11-28T10:20:26.124Z,-2.10
2018-11-28T10:22:54.651Z,-2.00
2018-11-28T10:25:25.407Z,-2.10
2018-11-28T10:27:57.172Z,-1.90
2018-11-28T10:30:27.344Z,-1.90
2018-11-28T10:32:56.668Z,-2.00
2018-11-28T10:35:25.258Z,-2.10
2018-11-28T10:37:53.794Z,-2.10
2018-11-28T10:40:24.486Z,-2.10
2018-11-28T10:42:56.146Z,-2.10
2018-11-28T10:45:25.878Z,-2.10
2018-11-28T10:47:54.404Z,-2.00
2018-11-28T10:50:22.946Z,-2.00
2018-11-28T10:52:51.862Z,-2.00
2018-11-28T10:55:22.383Z,-2.00
2018-11-28T10:57:50.966Z,-2.10
2018-11-28T11:00:30.300Z,-2.20
2018-11-28T11:03:04.088Z,-2.10
2018-11-28T11:05:37.962Z,-2.00
2018-11-28T11:08:12.858Z,-1.90
2018-11-28T11:10:46.586Z,-2.10
2018-11-28T11:13:20.325Z,-2.10
2018-11-28T11:15:54.138Z,-2.00
2018-11-28T11:18:22.750Z,-2.00
2018-11-28T11:20:51.291Z,-1.90
2018-11-28T11:23:19.794Z,-1.90
2018-11-28T11:25:48.390Z,-1.80
2018-11-28T11:28:17.399Z,-1.80
2018-11-28T11:30:46.021Z,-1.80
2018-11-28T11:33:15.239Z,-1.90
2018-11-28T11:35:43.777Z,-1.90
2018-11-28T11:38:12.334Z,-1.90
2018-11-28T11:40:40.926Z,-1.90
2018-11-28T11:43:10.754Z,-1.90
2018-11-28T11:45:39.773Z,-1.90
2018-11-28T11:48:08.002Z,-1.90
2018-11-28T11:50:36.579Z,-1.90
2018-11-28T11:53:05.830Z,-1.80
2018-11-28T11:55:34.974Z,-1.80
2018-11-28T11:58:03.510Z,-1.90
2018-11-28T12:00:32.068Z,-1.80
2018-11-28T12:03:09.782Z,-1.70
2018-11-28T12:05:39.282Z,-1.70
2018-11-28T12:08:08.265Z,-1.80
2018-11-28T12:10:36.775Z,-1.70
2018-11-28T12:13:06.047Z,-1.70
2018-11-28T12:15:35.691Z,-1.70
2018-11-28T12:18:03.151Z,-1.60
2018-11-28T12:20:36.311Z,-1.60
2018-11-28T12:23:05.270Z,-1.60
2018-11-28T12:25:33.852Z,-1.60
2018-11-28T12:28:02.383Z,-1.60
2018-11-28T12:30:30.942Z,-1.60
2018-11-28T12:32:59.476Z,-1.70
2018-11-28T12:35:28.038Z,-1.70
2018-11-28T12:37:56.615Z,-1.60
2018-11-28T12:40:25.131Z,-1.70
2018-11-28T12:42:53.842Z,-1.70
2018-11-28T12:45:22.364Z,-1.70
2018-11-28T12:47:50.935Z,-1.70
2018-11-28T12:50:23.587Z,-1.70
2018-11-28T12:52:53.318Z,-1.70
2018-11-28T12:55:22.830Z,-1.60
2018-11-28T12:57:52.698Z,-1.70
2018-11-28T13:00:23.062Z,-1.70
2018-11-28T13:02:51.591Z,-1.60
2018-11-28T13:05:21.653Z,-1.70
2018-11-28T13:07:50.173Z,-1.70
2018-11-28T13:10:23.527Z,-1.80
2018-11-28T13:12:52.524Z,-1.90
2018-11-28T13:15:22.443Z,-1.80
2018-11-28T13:17:50.967Z,-1.90
2018-11-28T13:20:20.623Z,-2.00
2018-11-28T13:22:53.451Z,-2.10
2018-11-28T13:25:26.591Z,-2.20
2018-11-28T13:27:56.103Z,-2.20
2018-11-28T13:30:25.966Z,-2.20
2018-11-28T13:32:55.513Z,-2.30
2018-11-28T13:35:26.831Z,-2.30
2018-11-28T13:38:05.303Z,-2.30
2018-11-28T13:40:34.911Z,-2.20
2018-11-28T13:43:03.442Z,-2.30
2018-11-28T13:45:34.234Z,-2.20
2018-11-28T13:48:02.837Z,-2.20
2018-11-28T13:50:31.342Z,-2.20
2018-11-28T13:53:01.779Z,-2.20
2018-11-28T13:55:40.096Z,-2.10
2018-11-28T13:58:03.678Z,-2.10
2018-11-28T14:00:32.225Z,-2.30
2018-11-28T14:03:00.730Z,-2.30
2018-11-28T14:05:29.234Z,-2.30
2018-11-28T14:07:57.775Z,-2.40
2018-11-28T14:10:26.406Z,-2.40
2018-11-28T14:12:54.934Z,-2.40
2018-11-28T14:15:23.988Z,-2.40
2018-11-28T14:17:58.867Z,-2.20
2018-11-28T14:20:27.406Z,-2.20
2018-11-28T14:22:56.295Z,-2.20
2018-11-28T14:25:24.869Z,-2.30
2018-11-28T14:27:54.305Z,-2.30
2018-11-28T14:30:25.162Z,-2.40
2018-11-28T14:32:53.510Z,-2.60
2018-11-28T14:35:23.416Z,-2.70
2018-11-28T14:37:52.421Z,-2.60
2018-11-28T14:40:23.303Z,-2.70
2018-11-28T14:42:55.290Z,-2.80
2018-11-28T14:45:24.670Z,-2.90
2018-11-28T14:47:53.269Z,-3.00
2018-11-28T14:50:23.453Z,-3.00
2018-11-28T14:52:53.086Z,-3.10
2018-11-28T14:55:24.980Z,-3.00
2018-11-28T14:57:53.551Z,-2.90
2018-11-28T15:00:25.825Z,-2.90
2018-11-28T15:03:27.114Z,-2.80
2018-11-28T15:06:35.251Z,-2.80
2018-11-28T15:09:09.203Z,-2.70
2018-11-28T15:11:37.727Z,-2.80
2018-11-28T15:14:06.237Z,-2.70
2018-11-28T15:16:34.762Z,-2.50
2018-11-28T15:19:03.310Z,-2.60
2018-11-28T15:21:31.814Z,-2.70
2018-11-28T15:24:00.326Z,-2.80
2018-11-28T15:26:28.903Z,-2.70
2018-11-28T15:28:57.391Z,-2.80
2018-11-28T15:31:25.915Z,-2.80
2018-11-28T15:33:54.442Z,-2.80
2018-11-28T15:36:22.944Z,-2.80
2018-11-28T15:38:51.482Z,-2.80
2018-11-28T15:41:20.453Z,-2.80
2018-11-28T15:43:49.033Z,-2.90
2018-11-28T15:46:17.587Z,-2.90
2018-11-28T15:48:46.083Z,-3.00
2018-11-28T15:51:14.631Z,-2.90
2018-11-28T15:53:43.158Z,-3.10
2018-11-28T15:56:11.684Z,-3.00
2018-11-28T15:58:40.178Z,-2.90
2018-11-28T16:01:08.834Z,-2.90
2018-11-28T16:03:37.364Z,-2.90
2018-11-28T16:06:06.522Z,-3.00
2018-11-28T16:08:35.090Z,-3.00
2018-11-28T16:11:08.123Z,-3.10
2018-11-28T16:13:36.646Z,-3.20
2018-11-28T16:16:05.898Z,-3.30
2018-11-28T16:18:34.396Z,-3.40
2018-11-28T16:21:02.926Z,-3.40
2018-11-28T16:23:31.485Z,-3.30
2018-11-28T16:26:00.403Z,-3.40
2018-11-28T16:28:28.962Z,-3.50
2018-11-28T16:30:57.494Z,-3.50
2018-11-28T16:33:25.998Z,-3.60
2018-11-28T16:35:54.601Z,-3.60
2018-11-28T16:38:23.706Z,-3.50
2018-11-28T16:40:52.620Z,-3.40
2018-11-28T16:43:21.118Z,-3.30
2018-11-28T16:45:49.680Z,-3.30
2018-11-28T16:48:18.178Z,-3.30
2018-11-28T16:50:46.723Z,-3.30
2018-11-28T16:53:15.222Z,-3.30
2018-11-28T16:55:43.725Z,-3.40
2018-11-28T16:58:12.238Z,-3.40
2018-11-28T17:00:42.710Z,-3.40
2018-11-28T17:03:11.502Z,-3.60
2018-11-28T17:05:40.074Z,-3.60
2018-11-28T17:08:09.790Z,-3.60
2018-11-28T17:10:38.414Z,-3.60
2018-11-28T17:13:07.541Z,-3.40
2018-11-28T17:15:36.039Z,-3.40
2018-11-28T17:18:04.838Z,-3.30
2018-11-28T17:20:33.363Z,-3.20
2018-11-28T17:23:01.874Z,-3.20
2018-11-28T17:25:32.242Z,-3.20
2018-11-28T17:28:00.781Z,-3.40
2018-11-28T17:30:30.455Z,-3.40
2018-11-28T17:32:59.100Z,-3.40
2018-11-28T17:35:27.627Z,-3.40
2018-11-28T17:37:56.214Z,-3.40
2018-11-28T17:40:26.199Z,-3.50
2018-11-28T17:42:56.112Z,-3.50
2018-11-28T17:45:25.066Z,-3.40
2018-11-28T17:47:53.654Z,-3.60
2018-11-28T17:50:24.145Z,-3.60
2018-11-28T17:52:58.568Z,-3.60
2018-11-28T17:55:28.546Z,-3.90
2018-11-28T17:57:57.063Z,-3.90
2018-11-28T18:00:25.596Z,-4.00
2018-11-28T18:02:54.375Z,-4.00
2018-11-28T18:05:22.909Z,-4.00
2018-11-28T18:07:51.446Z,-4.10
2018-11-28T18:10:21.095Z,-4.10
2018-11-28T18:13:00.920Z,-4.10
2018-11-28T18:15:29.425Z,-4.00
2018-11-28T18:17:58.251Z,-3.90
2018-11-28T18:20:26.759Z,-3.90
2018-11-28T18:22:55.284Z,-3.80
2018-11-28T18:25:24.968Z,-3.80
2018-11-28T18:27:53.558Z,-3.70
2018-11-28T18:30:22.092Z,-3.50
2018-11-28T18:32:50.617Z,-3.50
2018-11-28T18:35:19.160Z,-3.50
2018-11-28T18:37:47.702Z,-3.60
2018-11-28T18:40:16.230Z,-3.50
2018-11-28T18:42:44.762Z,-3.60
2018-11-28T18:45:23.367Z,-3.60
2018-11-28T18:47:51.902Z,-3.60
2018-11-28T18:50:20.428Z,-3.60
2018-11-28T18:52:48.939Z,-3.60
2018-11-28T18:55:18.694Z,-3.70
2018-11-28T18:57:50.656Z,-3.70
2018-11-28T19:00:22.538Z,-3.70
2018-11-28T19:02:52.031Z,-3.60
2018-11-28T19:05:21.019Z,-3.70
2018-11-28T19:07:49.569Z,-3.60
2018-11-28T19:10:19.814Z,-3.50
2018-11-28T19:12:48.342Z,-3.50
2018-11-28T19:15:19.546Z,-3.40
2018-11-28T19:17:49.083Z,-3.20
2018-11-28T19:20:20.245Z,-3.20
2018-11-28T19:22:49.708Z,-3.00
2018-11-28T19:25:19.700Z,-2.90
2018-11-28T19:27:48.245Z,-2.80
2018-11-28T19:30:22.311Z,-2.80
2018-11-28T19:32:50.870Z,-2.70
2018-11-28T19:35:19.398Z,-2.60
2018-11-28T19:37:47.902Z,-2.50
2018-11-28T19:40:19.834Z,-2.50
2018-11-28T19:42:48.346Z,-2.50
2018-11-28T19:45:16.920Z,-2.50
2018-11-28T19:47:45.893Z,-2.40
2018-11-28T19:50:21.327Z,-2.40
2018-11-28T19:52:50.347Z,-2.40
2018-11-28T19:55:18.870Z,-2.50
2018-11-28T19:57:47.377Z,-2.50
2018-11-28T20:00:17.278Z,-2.40
2018-11-28T20:02:46.694Z,-2.50
2018-11-28T20:05:15.270Z,-2.50
2018-11-28T20:07:45.736Z,-2.60
2018-11-28T20:10:17.027Z,-2.60
2018-11-28T20:12:45.574Z,-2.60
2018-11-28T20:15:18.362Z,-2.70
2018-11-28T20:17:47.039Z,-2.70
2018-11-28T20:20:16.507Z,-2.80
2018-11-28T20:22:45.022Z,-2.80
2018-11-28T20:25:15.113Z,-2.80
2018-11-28T20:27:45.046Z,-2.70
2018-11-28T20:30:15.746Z,-2.60
2018-11-28T20:32:44.301Z,-2.60
2018-11-28T20:35:12.886Z,-2.40
2018-11-28T20:37:42.640Z,-2.30
2018-11-28T20:40:15.458Z,-2.10
2018-11-28T20:42:50.254Z,-1.80
2018-11-28T20:45:19.974Z,-1.80
2018-11-28T20:47:48.537Z,-1.70
2018-11-28T20:50:29.664Z,-1.60
2018-11-28T20:53:00.235Z,-1.40
2018-11-28T20:55:28.749Z,-1.50
2018-11-28T20:57:57.290Z,-1.50
2018-11-28T21:00:26.539Z,-1.50
2018-11-28T21:02:55.623Z,-1.40
2018-11-28T21:05:24.186Z,-1.50
2018-11-28T21:07:52.731Z,-1.40
2018-11-28T21:10:41.570Z,-1.40
2018-11-28T21:13:11.993Z,-1.30
2018-11-28T21:15:41.383Z,-1.40
2018-11-28T21:18:10.246Z,-1.40
2018-11-28T21:20:40.278Z,-1.20
2018-11-28T21:23:11.306Z,-1.20
2018-11-28T21:25:39.811Z,-1.10
2018-11-28T21:28:08.353Z,-1.10
2018-11-28T21:30:37.162Z,-1.10
2018-11-28T21:33:06.850Z,-1.00
2018-11-28T21:35:37.778Z,-0.90
2018-11-28T21:38:07.736Z,-0.80
2018-11-28T21:40:36.291Z,-0.80
2018-11-28T21:43:05.342Z,-0.70
2018-11-28T21:45:33.990Z,-0.60
2018-11-28T21:48:02.514Z,-0.40
2018-11-28T21:50:31.054Z,-0.40
2018-11-28T21:52:59.566Z,-0.30
2018-11-28T21:55:28.067Z,-0.30
2018-11-28T21:57:56.576Z,-0.30
2018-11-28T22:00:26.638Z,-0.40
2018-11-28T22:02:55.190Z,-0.40
2018-11-28T22:05:24.851Z,-0.30
2018-11-28T22:07:53.386Z,-0.30
2018-11-28T22:10:23.397Z,-0.30
2018-11-28T22:12:52.935Z,-0.40
2018-11-28T22:15:21.453Z,-0.30
2018-11-28T22:17:57.325Z,-0.40
2018-11-28T22:20:26.779Z,-0.40
2018-11-28T22:22:55.717Z,-0.40
2018-11-28T22:25:27.654Z,-0.50
2018-11-28T22:27:56.410Z,-0.50
2018-11-28T22:30:27.682Z,-0.40
2018-11-28T22:32:56.403Z,-0.30
2018-11-28T22:35:24.951Z,-0.30
2018-11-28T22:37:53.487Z,-0.20
2018-11-28T22:40:26.049Z,-0.20
2018-11-28T22:42:54.556Z,-0.10
2018-11-28T22:45:25.915Z,-0.10
2018-11-28T22:47:54.658Z,-0.20
2018-11-28T22:50:23.249Z,-0.20
2018-11-28T22:52:51.782Z,-0.20
2018-11-28T22:55:20.319Z,-0.20
2018-11-28T22:57:48.901Z,-0.10
2018-11-28T23:00:27.482Z,-0.10
2018-11-28T23:03:02.122Z,0.00
2018-11-28T23:05:34.518Z,0.10
2018-11-28T23:08:04.006Z,0.10
2018-11-28T23:10:32.540Z,0.10
2018-11-28T23:13:01.082Z,0.20
2018-11-28T23:15:29.606Z,0.30
2018-11-28T23:17:58.165Z,0.40
2018-11-28T23:20:26.659Z,0.50
2018-11-28T23:22:55.230Z,0.50
2018-11-28T23:25:23.786Z,0.60
2018-11-28T23:27:52.286Z,0.60
2018-11-28T23:30:21.764Z,0.70
2018-11-28T23:32:51.031Z,0.70
2018-11-28T23:35:19.932Z,0.70
2018-11-28T23:37:49.088Z,0.60
2018-11-28T23:40:21.288Z,0.60
2018-11-28T23:42:50.652Z,0.70
2018-11-28T23:45:19.182Z,0.70
2018-11-28T23:47:47.946Z,0.70
2018-11-28T23:50:21.142Z,0.80
2018-11-28T23:52:50.343Z,0.80
2018-11-28T23:55:21.571Z,0.80
2018-11-28T23:57:50.135Z,0.90
